createdAt,value
2022-12-03T00:00:33.226Z,81.12
2022-12-03T00:01:35.105Z,81.06
2022-12-03T00:02:37.083Z,81.11
2022-12-03T00:03:39.348Z,81.00
2022-12-03T00:04:41.637Z,81.08
2022-12-03T00:05:48.780Z,81.07
2022-12-03T00:06:47.388Z,80.95
2022-12-03T00:07:49.335Z,80.95
2022-12-03T00:08:51.382Z,80.99
2022-12-03T00:09:53.352Z,80.94
2022-12-03T00:10:55.312Z,80.75
2022-12-03T00:11:57.176Z,80.70
2022-12-03T00:12:59.057Z,80.65
2022-12-03T00:14:00.946Z,80.85
2022-12-03T00:15:04.648Z,80.83
2022-12-03T00:16:09.185Z,80.95
2022-12-03T00:17:11.943Z,81.17
2022-12-03T00:18:13.916Z,81.24
2022-12-03T00:19:15.882Z,81.21
2022-12-03T00:20:21.090Z,81.18
2022-12-03T00:21:24.763Z,81.10
2022-12-03T00:22:27.293Z,81.11
2022-12-03T00:23:29.206Z,81.09
2022-12-03T00:24:31.070Z,81.07
2022-12-03T00:25:33.026Z,81.15
2022-12-03T00:26:34.988Z,81.27
2022-12-03T00:27:36.879Z,81.28
2022-12-03T00:28:40.173Z,81.11
2022-12-03T00:29:42.165Z,81.21
2022-12-03T00:30:44.208Z,81.30
2022-12-03T00:31:46.457Z,81.24
2022-12-03T00:32:48.568Z,81.28
2022-12-03T00:33:52.439Z,81.38
2022-12-03T00:34:54.539Z,81.34
2022-12-03T00:35:56.729Z,81.43
2022-12-03T00:36:58.700Z,81.49
2022-12-03T00:38:00.572Z,81.29
2022-12-03T00:39:02.997Z,81.25
2022-12-03T00:40:07.471Z,81.40
2022-12-03T00:41:10.613Z,81.54
2022-12-03T00:42:13.706Z,81.54
2022-12-03T00:43:15.599Z,81.64
2022-12-03T00:44:17.458Z,81.65
2022-12-03T00:45:19.319Z,81.73
2022-12-03T00:46:23.207Z,81.66
2022-12-03T00:47:25.382Z,81.44
2022-12-03T00:48:27.264Z,81.43
2022-12-03T00:49:29.158Z,81.40
2022-12-03T00:50:31.134Z,81.53
2022-12-03T00:51:32.968Z,81.72
2022-12-03T00:52:35.469Z,81.74
2022-12-03T00:53:37.370Z,81.83
2022-12-03T00:54:39.215Z,81.82
2022-12-03T00:55:41.080Z,81.82
2022-12-03T00:56:43.207Z,81.77
2022-12-03T00:57:45.050Z,81.87
2022-12-03T00:58:46.909Z,82.02
2022-12-03T00:59:49.927Z,81.97
2022-12-03T01:00:52.255Z,81.95
2022-12-03T01:01:54.204Z,81.94
2022-12-03T01:02:56.329Z,81.97
2022-12-03T01:03:58.203Z,81.94
2022-12-03T01:05:00.945Z,81.98
2022-12-03T01:06:03.410Z,81.89
2022-12-03T01:07:05.380Z,81.84
2022-12-03T01:08:08.251Z,81.82
2022-12-03T01:09:10.633Z,81.77
2022-12-03T01:10:13.426Z,81.78
2022-12-03T01:11:15.296Z,81.73
2022-12-03T01:12:17.170Z,81.72
2022-12-03T01:13:19.186Z,81.68
2022-12-03T01:14:21.434Z,81.79
2022-12-03T01:15:23.315Z,81.92
2022-12-03T01:16:25.335Z,81.77
2022-12-03T01:17:27.331Z,81.89
2022-12-03T01:18:29.204Z,81.88
2022-12-03T01:19:31.057Z,81.84
2022-12-03T01:20:33.152Z,81.85
2022-12-03T01:21:35.633Z,82.04
2022-12-03T01:22:37.499Z,81.93
2022-12-03T01:23:39.372Z,82.07
2022-12-03T01:24:41.242Z,81.99
2022-12-03T01:25:44.914Z,82.17
2022-12-03T01:26:47.172Z,82.12
2022-12-03T01:27:49.009Z,82.26
2022-12-03T01:28:51.735Z,82.45
2022-12-03T01:29:53.673Z,82.37
2022-12-03T01:30:55.669Z,82.33
2022-12-03T01:31:57.614Z,82.32
2022-12-03T01:32:59.499Z,82.38
2022-12-03T01:34:01.368Z,82.37
2022-12-03T01:35:03.816Z,82.37
2022-12-03T01:36:07.301Z,82.53
2022-12-03T01:37:10.494Z,82.52
2022-12-03T01:38:12.357Z,82.68
2022-12-03T01:39:14.328Z,82.58
2022-12-03T01:40:19.191Z,82.66
2022-12-03T01:41:23.984Z,82.68
2022-12-03T01:42:32.381Z,82.83
2022-12-03T01:43:35.507Z,82.77
2022-12-03T01:44:40.198Z,82.88
2022-12-03T01:45:42.303Z,82.93
2022-12-03T01:46:45.569Z,82.82
2022-12-03T01:47:48.168Z,82.76
2022-12-03T01:48:52.954Z,82.87
2022-12-03T01:51:08.022Z,83.02
2022-12-03T01:52:13.148Z,83.02
2022-12-03T01:53:17.352Z,82.97
2022-12-03T01:54:22.621Z,82.93
2022-12-03T01:55:25.748Z,83.02
2022-12-03T01:56:27.732Z,83.16
2022-12-03T01:57:33.353Z,83.13
2022-12-03T01:58:35.225Z,83.25
2022-12-03T01:59:41.078Z,83.25
2022-12-03T02:00:43.075Z,83.25
2022-12-03T02:01:45.638Z,83.30
2022-12-03T02:02:50.822Z,83.34
2022-12-03T02:03:52.769Z,83.54
2022-12-03T02:04:55.375Z,83.59
2022-12-03T02:05:57.660Z,83.48
2022-12-03T02:07:21.533Z,83.57
2022-12-03T02:08:36.996Z,83.61
2022-12-03T02:09:38.934Z,83.76
2022-12-03T02:10:40.975Z,83.68
2022-12-03T02:11:46.574Z,83.75
2022-12-03T02:12:52.282Z,83.88
2022-12-03T02:13:58.072Z,83.92
2022-12-03T02:15:01.238Z,84.00
2022-12-03T02:16:04.018Z,83.96
2022-12-03T02:17:05.991Z,84.00
2022-12-03T02:18:10.765Z,83.94
2022-12-03T02:19:23.713Z,83.85
2022-12-03T02:20:26.092Z,83.95
2022-12-03T02:21:41.578Z,84.14
2022-12-03T02:22:53.672Z,84.18
2022-12-03T02:24:19.313Z,84.58
2022-12-03T02:25:24.953Z,84.70
2022-12-03T02:26:28.027Z,84.64
2022-12-03T02:27:29.930Z,84.79
2022-12-03T02:28:32.211Z,84.90
2022-12-03T02:29:35.498Z,84.81
2022-12-03T02:30:37.693Z,84.81
2022-12-03T02:31:39.704Z,84.82
2022-12-03T02:32:42.149Z,84.83
2022-12-03T02:33:46.229Z,84.91
2022-12-03T02:34:49.001Z,85.02
2022-12-03T02:35:51.045Z,85.12
2022-12-03T02:36:53.194Z,85.23
2022-12-03T02:38:10.506Z,85.30
2022-12-03T02:39:12.861Z,85.38
2022-12-03T02:40:21.468Z,85.42
2022-12-03T02:41:23.938Z,85.66
2022-12-03T02:42:26.311Z,85.84
2022-12-03T02:43:28.731Z,85.87
2022-12-03T02:44:30.634Z,85.90
2022-12-03T02:45:45.346Z,85.83
2022-12-03T02:46:47.671Z,85.78
2022-12-03T02:47:56.251Z,85.89
2022-12-03T02:48:59.107Z,85.96
2022-12-03T02:50:02.081Z,86.00
2022-12-03T02:51:07.685Z,86.07
2022-12-03T02:52:10.164Z,86.13
2022-12-03T02:53:15.789Z,86.25
2022-12-03T02:54:19.035Z,86.28
2022-12-03T02:55:22.340Z,86.27
2022-12-03T02:56:28.187Z,86.29
2022-12-03T02:57:30.785Z,86.26
2022-12-03T02:58:33.443Z,86.42
2022-12-03T02:59:35.408Z,86.43
2022-12-03T03:00:38.715Z,86.43
2022-12-03T03:01:41.846Z,86.46
2022-12-03T03:02:46.118Z,86.45
2022-12-03T03:03:49.345Z,86.62
2022-12-03T03:04:52.059Z,86.73
2022-12-03T03:05:55.635Z,86.71
2022-12-03T03:06:58.744Z,86.82
2022-12-03T03:08:01.589Z,86.81
2022-12-03T03:09:04.537Z,86.87
2022-12-03T03:10:10.713Z,87.05
2022-12-03T03:11:12.651Z,87.00
2022-12-03T03:12:16.470Z,87.17
2022-12-03T03:13:20.451Z,87.13
2022-12-03T03:14:22.423Z,87.23
2022-12-03T03:15:24.914Z,87.33
2022-12-03T03:16:27.295Z,87.19
2022-12-03T03:17:29.404Z,87.11
2022-12-03T03:18:33.760Z,87.22
2022-12-03T03:19:35.730Z,87.23
2022-12-03T03:20:38.758Z,87.29
2022-12-03T03:21:40.630Z,87.17
2022-12-03T03:22:43.128Z,87.17
2022-12-03T03:23:45.384Z,87.40
2022-12-03T03:24:47.438Z,87.54
2022-12-03T03:25:53.143Z,87.63
2022-12-03T03:26:55.239Z,87.67
2022-12-03T03:27:57.228Z,87.86
2022-12-03T03:28:59.282Z,87.93
2022-12-03T03:30:01.253Z,87.88
2022-12-03T03:31:05.882Z,88.04
2022-12-03T03:32:07.947Z,88.24
2022-12-03T03:33:12.399Z,88.19
2022-12-03T03:34:15.397Z,88.26
2022-12-03T03:35:17.965Z,88.17
2022-12-03T03:36:20.478Z,88.19
2022-12-03T03:37:24.410Z,88.28
2022-12-03T03:38:28.896Z,88.40
2022-12-03T03:39:31.120Z,88.53
2022-12-03T03:40:33.655Z,88.59
2022-12-03T03:41:36.231Z,88.65
2022-12-03T03:42:38.695Z,88.80
2022-12-03T03:43:43.347Z,88.95
2022-12-03T03:44:45.676Z,89.00
2022-12-03T03:45:48.247Z,88.98
2022-12-03T03:46:51.866Z,88.80
2022-12-03T03:47:54.811Z,88.75
2022-12-03T03:48:56.689Z,88.78
2022-12-03T03:49:58.771Z,88.74
2022-12-03T03:51:03.697Z,88.89
2022-12-03T03:52:06.226Z,88.67
2022-12-03T03:53:09.196Z,88.54
2022-12-03T03:54:11.900Z,88.60
2022-12-03T03:55:14.187Z,88.65
2022-12-03T03:56:17.478Z,88.66
2022-12-03T03:57:19.806Z,88.70
2022-12-03T03:58:21.843Z,88.67
2022-12-03T03:59:23.823Z,88.70
2022-12-03T04:00:26.327Z,88.67
2022-12-03T04:01:29.251Z,88.71
2022-12-03T04:02:33.420Z,88.60
2022-12-03T04:03:35.307Z,88.40
2022-12-03T04:04:37.235Z,88.45
2022-12-03T04:05:40.909Z,88.47
2022-12-03T04:06:43.667Z,88.51
2022-12-03T04:07:48.245Z,88.61
2022-12-03T04:08:51.878Z,88.57
2022-12-03T04:09:53.739Z,88.63
2022-12-03T04:10:56.042Z,88.75
2022-12-03T04:11:57.900Z,88.73
2022-12-03T04:13:00.717Z,88.76
2022-12-03T04:14:02.786Z,88.50
2022-12-03T04:15:06.159Z,88.42
2022-12-03T04:16:08.408Z,88.41
2022-12-03T04:17:10.427Z,88.30
2022-12-03T04:18:12.292Z,88.41
2022-12-03T04:19:14.258Z,88.42
2022-12-03T04:20:16.567Z,88.25
2022-12-03T04:21:20.887Z,88.14
2022-12-03T04:22:22.882Z,88.04
2022-12-03T04:23:30.578Z,88.17
2022-12-03T04:24:28.539Z,87.99
2022-12-03T04:25:30.390Z,87.79
2022-12-03T04:26:33.009Z,87.89
2022-12-03T04:27:34.875Z,88.03
2022-12-03T04:28:36.756Z,88.09
2022-12-03T04:29:38.618Z,87.96
2022-12-03T04:30:40.615Z,87.95
2022-12-03T04:31:42.797Z,87.92
2022-12-03T04:32:44.646Z,88.05
2022-12-03T04:33:46.714Z,88.22
2022-12-03T04:34:48.723Z,88.36
2022-12-03T04:35:52.203Z,88.50
2022-12-03T04:36:54.560Z,88.41
2022-12-03T04:37:56.409Z,88.47
2022-12-03T04:38:58.320Z,88.50
2022-12-03T04:40:00.176Z,88.49
2022-12-03T04:41:03.663Z,88.44
2022-12-03T04:42:05.540Z,88.44
2022-12-03T04:43:07.376Z,88.43
2022-12-03T04:44:10.041Z,88.46
2022-12-03T04:45:11.916Z,88.40
2022-12-03T04:46:14.013Z,88.35
2022-12-03T04:47:18.908Z,88.43
2022-12-03T04:48:21.736Z,88.55
2022-12-03T04:49:24.839Z,88.45
2022-12-03T04:50:26.801Z,88.58
2022-12-03T04:51:28.651Z,88.53
2022-12-03T04:52:30.548Z,88.49
2022-12-03T04:53:35.363Z,88.38
2022-12-03T04:54:37.381Z,88.40
2022-12-03T04:55:39.807Z,88.42
2022-12-03T04:56:42.953Z,88.33
2022-12-03T04:57:44.828Z,88.22
2022-12-03T04:58:46.783Z,88.30
2022-12-03T04:59:48.635Z,88.35
2022-12-03T05:00:50.660Z,88.23
2022-12-03T05:01:52.784Z,87.91
2022-12-03T05:02:55.443Z,88.18
2022-12-03T05:03:57.361Z,88.26
2022-12-03T05:04:59.420Z,88.38
2022-12-03T05:06:03.124Z,88.43
2022-12-03T05:07:05.005Z,88.16
2022-12-03T05:08:06.915Z,88.15
2022-12-03T05:09:10.422Z,88.25
2022-12-03T05:10:12.911Z,88.21
2022-12-03T05:11:15.624Z,88.34
2022-12-03T05:12:17.532Z,88.65
2022-12-03T05:13:19.480Z,88.54
2022-12-03T05:14:21.347Z,88.62
2022-12-03T05:15:23.566Z,88.67
2022-12-03T05:16:25.592Z,88.97
2022-12-03T05:17:27.658Z,89.06
2022-12-03T05:18:29.624Z,88.91
2022-12-03T05:19:31.467Z,89.05
2022-12-03T05:20:33.489Z,89.20
2022-12-03T05:21:35.641Z,89.05
2022-12-03T05:22:37.510Z,88.91
2022-12-03T05:23:39.384Z,88.82
2022-12-03T05:24:41.295Z,89.10
2022-12-03T05:25:43.201Z,89.07
2022-12-03T05:26:46.077Z,89.07
2022-12-03T05:27:48.061Z,88.96
2022-12-03T05:28:50.310Z,88.84
2022-12-03T05:29:52.472Z,88.94
2022-12-03T05:30:54.707Z,88.93
2022-12-03T05:31:56.814Z,88.95
2022-12-03T05:32:58.880Z,88.79
2022-12-03T05:34:00.762Z,88.83
2022-12-03T05:35:03.126Z,88.74
2022-12-03T05:36:05.923Z,88.73
2022-12-03T05:37:07.802Z,88.63
2022-12-03T05:38:09.650Z,88.67
2022-12-03T05:39:11.538Z,88.82
2022-12-03T05:40:14.299Z,88.96
2022-12-03T05:41:16.284Z,89.08
2022-12-03T05:42:18.161Z,89.33
2022-12-03T05:43:20.043Z,89.47
2022-12-03T05:44:22.126Z,89.53
2022-12-03T05:45:30.431Z,89.49
2022-12-03T05:46:32.495Z,89.67
2022-12-03T05:47:35.458Z,89.87
2022-12-03T05:48:39.261Z,89.93
2022-12-03T05:49:41.155Z,89.81
2022-12-03T05:50:45.117Z,89.94
2022-12-03T05:51:47.038Z,90.12
2022-12-03T05:52:50.671Z,90.36
2022-12-03T05:53:52.606Z,90.61
2022-12-03T05:54:55.003Z,90.79
2022-12-03T05:55:57.127Z,91.03
2022-12-03T05:56:59.080Z,91.29
2022-12-03T05:58:01.652Z,91.46
2022-12-03T05:59:03.510Z,91.71
2022-12-03T06:00:09.619Z,91.88
2022-12-03T06:01:11.539Z,92.07
2022-12-03T06:02:13.661Z,92.21
2022-12-03T06:03:16.923Z,92.24
2022-12-03T06:04:19.031Z,92.43
2022-12-03T06:05:21.973Z,92.59
2022-12-03T06:06:23.928Z,92.72
2022-12-03T06:08:29.407Z,93.14
2022-12-03T06:09:31.287Z,93.08
2022-12-03T06:10:33.226Z,93.21
2022-12-03T06:11:35.067Z,93.25
2022-12-03T06:12:36.916Z,93.49
2022-12-03T06:13:39.631Z,93.57
2022-12-03T06:14:41.503Z,93.70
2022-12-03T06:15:44.271Z,93.71
2022-12-03T06:16:47.756Z,93.64
2022-12-03T06:17:50.344Z,93.89
2022-12-03T06:18:52.221Z,94.06
2022-12-03T06:19:54.188Z,94.08
2022-12-03T06:20:56.167Z,94.03
2022-12-03T06:22:00.676Z,93.87
2022-12-03T06:23:02.672Z,94.04
2022-12-03T06:24:05.611Z,94.23
2022-12-03T06:25:08.722Z,94.37
2022-12-03T06:26:13.495Z,94.38
2022-12-03T06:27:16.010Z,94.56
2022-12-03T06:28:18.234Z,94.56
2022-12-03T06:29:20.129Z,94.81
2022-12-03T06:30:22.110Z,94.90
2022-12-03T06:31:24.055Z,95.05
2022-12-03T11:19:16.308Z,88.47
2022-12-03T11:20:27.905Z,87.91
2022-12-03T11:21:30.050Z,87.55
2022-12-03T11:24:02.186Z,86.62
2022-12-03T11:25:23.049Z,86.47
2022-12-03T11:26:31.871Z,86.20
2022-12-03T11:27:33.794Z,85.98
2022-12-03T11:28:39.760Z,85.97
2022-12-03T11:29:57.190Z,86.11
2022-12-03T11:31:06.025Z,86.30
2022-12-03T11:32:08.002Z,86.56
2022-12-03T11:33:30.116Z,86.18
2022-12-03T11:34:35.803Z,85.83
2022-12-03T11:35:41.471Z,86.01
2022-12-03T11:37:13.372Z,86.19
2022-12-03T11:38:40.034Z,85.63
2022-12-03T11:39:52.415Z,85.51
2022-12-03T11:41:11.545Z,85.77
2022-12-03T11:42:23.077Z,85.73
2022-12-03T11:43:43.679Z,85.44
2022-12-03T11:44:49.384Z,85.54
2022-12-03T11:45:51.756Z,85.69
2022-12-03T11:46:57.389Z,85.33
2022-12-03T11:48:03.155Z,85.08
2022-12-03T11:49:33.502Z,84.90
2022-12-03T11:50:40.315Z,84.93
2022-12-03T11:51:44.023Z,84.98
2022-12-03T11:52:50.194Z,85.30
2022-12-03T11:53:55.553Z,85.47
2022-12-03T11:55:01.253Z,85.55
2022-12-03T11:56:06.590Z,85.53
2022-12-03T11:57:30.692Z,85.70
2022-12-03T11:58:33.760Z,85.71
2022-12-03T11:59:35.627Z,85.73
2022-12-03T12:00:38.573Z,85.38
2022-12-03T12:01:41.823Z,85.47
2022-12-03T12:02:43.886Z,85.61
2022-12-03T12:03:49.360Z,85.79
2022-12-03T12:04:52.019Z,85.91
2022-12-03T12:06:08.166Z,86.15
2022-12-03T12:07:10.077Z,85.98
2022-12-03T12:08:16.437Z,85.89
2022-12-03T12:09:51.707Z,86.08
2022-12-03T12:10:53.942Z,86.24
2022-12-03T12:11:57.882Z,85.93
2022-12-03T12:12:59.859Z,85.92
2022-12-03T12:14:03.931Z,85.79
2022-12-03T12:15:41.784Z,85.91
2022-12-03T12:16:53.231Z,85.26
2022-12-03T12:17:55.201Z,85.06
2022-12-03T12:18:57.057Z,85.26
2022-12-03T12:20:25.879Z,85.44
2022-12-03T12:21:47.222Z,85.54
2022-12-03T12:22:50.465Z,85.60
2022-12-03T12:23:52.446Z,85.80
2022-12-03T12:25:02.648Z,85.84
2022-12-03T12:26:06.083Z,85.88
2022-12-03T12:27:20.322Z,86.07
2022-12-03T12:35:49.500Z,88.18
2022-12-03T13:05:09.783Z,92.09
2022-12-03T13:06:15.361Z,92.87
2022-12-03T13:07:18.214Z,93.18
2022-12-03T13:08:23.926Z,93.47
2022-12-03T13:09:26.567Z,93.75
2022-12-03T13:10:41.118Z,94.15
2022-12-03T13:11:46.279Z,94.47
2022-12-03T13:12:48.171Z,94.75
2022-12-03T13:13:51.133Z,94.81
2022-12-03T13:14:56.781Z,94.95
2022-12-03T13:16:07.174Z,95.24
2022-12-03T13:17:21.417Z,95.25
2022-12-03T13:18:26.787Z,95.39
2022-12-03T13:19:31.977Z,95.63
2022-12-03T13:20:34.021Z,95.93
2022-12-03T13:21:39.053Z,96.36
2022-12-03T13:22:44.712Z,96.67
2022-12-03T13:23:47.852Z,97.01
2022-12-03T13:24:51.469Z,97.37
2022-12-03T13:26:12.935Z,97.80
2022-12-03T13:27:21.115Z,97.98
2022-12-03T13:28:23.844Z,98.27
2022-12-03T13:29:27.455Z,98.66
2022-12-03T13:30:29.577Z,98.85
2022-12-03T13:31:33.881Z,99.06
2022-12-03T13:32:37.142Z,99.06
2022-12-03T13:33:40.039Z,99.26
2022-12-03T13:34:42.425Z,99.68
2022-12-03T13:35:44.294Z,100.00
2022-12-03T13:36:49.475Z,100.00
2022-12-03T13:37:50.824Z,100.00
2022-12-03T13:38:52.996Z,100.00
2022-12-03T13:39:57.015Z,100.00
2022-12-03T13:41:03.720Z,100.00
2022-12-03T13:42:09.350Z,100.00
2022-12-03T13:43:18.616Z,100.00
2022-12-03T13:44:20.849Z,100.00
2022-12-03T13:45:35.699Z,100.00
2022-12-03T13:46:38.589Z,100.00
2022-12-03T13:47:43.208Z,100.00
2022-12-03T13:48:45.419Z,100.00
2022-12-03T13:49:54.077Z,100.00
2022-12-03T13:50:59.204Z,100.00
2022-12-03T13:52:01.126Z,100.00
2022-12-03T13:53:12.420Z,100.00
2022-12-03T13:54:23.151Z,100.00
2022-12-03T13:56:38.444Z,100.00
2022-12-03T13:57:40.332Z,100.00
2022-12-03T13:58:42.190Z,100.00
2022-12-03T13:59:44.061Z,100.00
2022-12-03T14:00:46.325Z,100.00
2022-12-03T14:01:49.334Z,100.00
2022-12-03T14:02:51.599Z,100.00
2022-12-03T14:03:53.703Z,100.00
2022-12-03T18:22:28.531Z,90.59
2022-12-03T18:23:32.040Z,90.36
2022-12-03T18:24:34.532Z,90.52
2022-12-03T18:25:36.635Z,90.37
2022-12-03T18:26:38.709Z,90.32
2022-12-03T18:27:40.593Z,90.06
2022-12-03T18:28:42.452Z,90.35
2022-12-03T18:30:53.786Z,90.36
2022-12-03T18:31:55.709Z,90.05
2022-12-03T18:32:57.793Z,90.05
2022-12-03T18:33:59.686Z,90.35
2022-12-03T18:35:01.630Z,90.46
2022-12-03T18:36:04.935Z,90.50
2022-12-03T18:37:10.711Z,90.28
2022-12-03T18:38:15.380Z,90.20
2022-12-03T18:40:35.595Z,90.36
2022-12-03T18:41:38.342Z,90.63
2022-12-03T18:42:40.317Z,90.47
2022-12-03T18:43:42.292Z,90.72
2022-12-03T18:44:49.622Z,90.63
2022-12-03T18:45:49.821Z,90.65
2022-12-03T18:46:54.007Z,90.66
2022-12-03T18:47:55.668Z,90.74
2022-12-03T18:48:57.681Z,90.67
2022-12-03T18:49:59.716Z,90.79
2022-12-03T18:51:01.769Z,90.91
2022-12-03T18:52:04.125Z,90.86
2022-12-03T18:53:08.702Z,90.78
2022-12-03T18:54:12.477Z,90.85
2022-12-03T18:55:19.179Z,91.18
2022-12-03T18:56:22.054Z,91.05
2022-12-03T18:57:23.922Z,91.18
2022-12-03T18:58:25.801Z,91.50
2022-12-03T18:59:27.662Z,91.72
2022-12-03T19:00:31.936Z,91.80
2022-12-03T19:01:35.753Z,91.84
2022-12-03T19:03:01.743Z,91.90
2022-12-03T19:03:41.730Z,92.08
2022-12-03T19:04:43.795Z,92.04
2022-12-03T19:05:46.293Z,92.02
2022-12-03T19:06:48.377Z,91.88
2022-12-03T19:07:50.371Z,92.01
2022-12-03T19:08:53.488Z,92.17
2022-12-03T19:09:55.895Z,92.17
2022-12-03T19:10:59.765Z,92.13
2022-12-03T19:12:01.652Z,92.13
2022-12-03T19:13:03.556Z,92.25
2022-12-03T19:14:05.814Z,92.39
2022-12-03T19:15:08.178Z,92.60
2022-12-03T19:16:10.826Z,92.57
2022-12-03T19:17:12.916Z,92.52
2022-12-03T19:18:14.784Z,92.30
2022-12-03T19:19:16.689Z,92.19
2022-12-03T19:20:18.957Z,92.44
2022-12-03T19:21:21.718Z,92.72
2022-12-03T19:22:23.904Z,92.51
2022-12-03T19:23:25.812Z,92.62
2022-12-03T19:24:27.742Z,92.79
2022-12-03T19:25:29.625Z,92.97
2022-12-03T19:26:31.692Z,93.14
2022-12-03T19:27:33.980Z,93.04
2022-12-03T19:28:36.029Z,93.13
2022-12-03T19:29:39.247Z,93.09
2022-12-03T19:30:41.234Z,93.63
2022-12-03T19:31:43.170Z,93.97
2022-12-03T19:32:45.283Z,93.50
2022-12-03T19:33:47.757Z,93.36
2022-12-03T19:34:50.069Z,93.22
2022-12-03T19:35:56.253Z,93.17
2022-12-03T19:38:15.675Z,93.26
2022-12-03T19:39:18.463Z,93.27
2022-12-03T19:40:20.530Z,93.24
2022-12-03T19:41:23.537Z,93.29
2022-12-03T19:42:25.408Z,93.31
2022-12-03T19:43:27.685Z,93.35
2022-12-03T19:44:30.651Z,93.37
2022-12-03T19:45:35.281Z,93.43
2022-12-03T19:46:37.444Z,93.57
2022-12-03T19:47:39.329Z,93.58
2022-12-03T19:48:41.338Z,93.54
2022-12-03T19:49:43.205Z,93.73
2022-12-03T19:51:07.940Z,93.72
2022-12-03T19:51:57.565Z,93.66
2022-12-03T19:52:59.529Z,93.64
2022-12-03T19:54:03.680Z,93.80
2022-12-03T19:55:06.632Z,93.82
2022-12-03T19:56:15.282Z,93.69
2022-12-03T19:57:23.118Z,93.67
2022-12-03T19:58:22.858Z,93.74
2022-12-03T19:59:24.778Z,93.90
2022-12-03T20:00:26.737Z,94.03
2022-12-03T20:01:32.163Z,94.12
2022-12-03T20:02:34.362Z,94.08
2022-12-03T20:03:41.452Z,93.92
2022-12-03T20:04:43.387Z,93.75
2022-12-03T20:05:45.266Z,93.79
2022-12-03T20:06:47.272Z,93.69
2022-12-03T20:07:49.369Z,93.74
2022-12-03T20:09:00.675Z,93.76
2022-12-03T20:10:03.419Z,93.73
2022-12-03T20:11:23.505Z,93.85
2022-12-03T20:12:25.963Z,93.82
2022-12-03T20:13:33.428Z,93.83
2022-12-03T20:14:32.595Z,93.96
2022-12-03T20:15:37.560Z,93.94
2022-12-03T20:16:40.500Z,93.65
2022-12-03T20:17:42.600Z,93.68
2022-12-03T20:18:46.666Z,93.74
2022-12-03T20:19:48.675Z,93.61
2022-12-03T20:20:50.648Z,93.63
2022-12-03T20:21:55.270Z,93.78
2022-12-03T20:22:56.407Z,93.71
2022-12-03T20:23:58.803Z,93.54
2022-12-03T20:25:00.650Z,93.43
2022-12-03T20:26:08.034Z,93.12
2022-12-03T20:27:10.054Z,93.13
2022-12-03T20:28:11.920Z,93.04
2022-12-03T20:29:13.861Z,93.01
2022-12-03T20:30:16.227Z,92.79
2022-12-03T20:31:21.852Z,92.83
2022-12-03T20:32:24.174Z,92.94
2022-12-03T20:33:26.567Z,92.91
2022-12-03T20:34:28.489Z,93.06
2022-12-03T20:35:30.369Z,93.06
2022-12-03T20:36:33.802Z,92.97
2022-12-03T20:37:35.698Z,93.14
2022-12-03T20:38:37.865Z,93.22
2022-12-03T20:39:39.782Z,93.42
2022-12-03T20:40:41.775Z,93.31
2022-12-03T20:41:44.974Z,93.31
2022-12-03T20:42:47.605Z,93.08
2022-12-03T20:43:50.286Z,92.92
2022-12-03T20:44:53.188Z,93.00
2022-12-03T20:45:59.616Z,93.11
2022-12-03T20:46:59.953Z,93.23
2022-12-03T20:48:01.921Z,93.11
2022-12-03T20:49:04.463Z,93.16
2022-12-03T20:50:07.691Z,93.19
2022-12-03T20:51:13.281Z,93.11
2022-12-03T20:52:15.439Z,93.23
2022-12-03T20:53:24.944Z,93.34
2022-12-03T20:54:21.861Z,93.16
2022-12-03T20:55:23.773Z,93.10
2022-12-03T20:56:29.006Z,93.01
2022-12-03T20:57:31.039Z,92.97
2022-12-03T20:58:34.252Z,93.15
2022-12-03T20:59:36.175Z,93.22
2022-12-03T21:00:38.179Z,93.30
2022-12-03T21:01:40.721Z,93.28
2022-12-03T21:02:43.962Z,93.32
2022-12-03T21:03:47.624Z,93.27
2022-12-03T21:04:50.091Z,93.27
2022-12-03T21:05:56.607Z,93.42
2022-12-03T21:06:58.634Z,93.77
2022-12-03T21:08:00.570Z,93.78
2022-12-03T21:09:05.521Z,93.50
2022-12-03T21:10:08.983Z,93.53
2022-12-03T21:11:13.813Z,93.47
2022-12-03T21:12:15.728Z,93.70
2022-12-03T21:13:17.857Z,93.70
2022-12-03T21:14:19.843Z,92.97
2022-12-03T21:15:21.708Z,92.97
2022-12-03T21:16:52.191Z,92.76
2022-12-03T21:17:31.359Z,92.77
2022-12-03T21:18:34.397Z,92.76
2022-12-03T21:19:37.195Z,92.95
2022-12-03T21:20:47.075Z,93.00
2022-12-03T21:21:48.990Z,92.86
2022-12-03T21:22:51.851Z,92.90
2022-12-03T21:23:54.408Z,92.92
2022-12-03T21:24:56.378Z,92.88
2022-12-03T21:26:16.920Z,92.86
2022-12-03T21:27:21.880Z,92.83
2022-12-03T21:28:22.670Z,92.87
2022-12-03T21:29:24.557Z,93.14
2022-12-03T21:30:26.749Z,93.32
2022-12-03T21:31:28.863Z,93.48
2022-12-03T21:32:30.846Z,93.73
2022-12-03T21:33:32.997Z,93.65
2022-12-03T21:34:36.527Z,93.51
2022-12-03T21:35:38.620Z,93.66
2022-12-03T21:36:41.418Z,93.67
2022-12-03T21:37:43.296Z,93.75
2022-12-03T21:38:45.460Z,93.76
2022-12-03T21:39:47.388Z,93.80
2022-12-03T21:40:49.823Z,93.89
2022-12-03T21:42:18.948Z,93.96
2022-12-03T21:42:55.505Z,93.85
2022-12-03T21:43:58.140Z,93.82
2022-12-03T21:45:00.079Z,93.79
2022-12-03T21:47:18.258Z,93.58
2022-12-03T21:48:22.254Z,93.50
2022-12-03T21:49:24.158Z,93.21
2022-12-03T21:50:26.235Z,93.10
2022-12-03T21:51:28.128Z,93.16
2022-12-03T21:52:30.020Z,93.15
2022-12-03T21:53:33.620Z,93.12
2022-12-03T21:54:35.529Z,93.21
2022-12-03T21:55:39.408Z,93.14
2022-12-03T21:56:41.396Z,93.33
2022-12-03T21:57:43.250Z,93.44
2022-12-03T21:58:45.891Z,93.48
2022-12-03T21:59:47.803Z,93.37
2022-12-03T22:00:50.453Z,93.24
2022-12-03T22:01:52.643Z,93.00
2022-12-03T22:02:54.683Z,92.94
2022-12-03T22:03:57.678Z,92.85
2022-12-03T22:04:59.607Z,92.90
2022-12-03T22:06:01.483Z,92.96
2022-12-03T22:07:05.854Z,92.72
2022-12-03T22:08:08.846Z,92.77
2022-12-03T22:09:10.962Z,92.73
2022-12-03T22:10:12.958Z,92.83
2022-12-03T22:11:18.285Z,92.83
2022-12-03T22:12:20.192Z,92.60
2022-12-03T22:13:22.166Z,92.57
2022-12-03T22:14:24.777Z,92.49
2022-12-03T22:15:26.873Z,92.41
2022-12-03T22:16:28.915Z,92.62
2022-12-03T22:17:30.923Z,92.64
2022-12-03T22:18:34.415Z,92.84
2022-12-03T22:19:36.325Z,92.83
2022-12-03T22:20:43.170Z,92.90
2022-12-03T22:21:45.074Z,92.76
2022-12-03T22:22:46.970Z,92.78
2022-12-03T22:23:49.134Z,93.00
2022-12-03T22:24:51.010Z,93.29
2022-12-03T22:26:00.718Z,93.25
2022-12-03T22:27:02.792Z,93.18
2022-12-03T22:28:04.678Z,93.20
2022-12-03T22:29:06.562Z,93.40
2022-12-03T22:30:09.744Z,93.25
2022-12-03T22:31:12.946Z,93.03
2022-12-03T22:32:16.458Z,92.92
2022-12-03T22:33:19.036Z,92.77
2022-12-03T22:34:21.317Z,92.45
2022-12-03T22:35:23.383Z,92.30
2022-12-03T22:36:25.346Z,92.28
2022-12-03T22:37:27.235Z,92.19
2022-12-03T22:38:30.745Z,92.13
2022-12-03T22:39:33.185Z,92.27
2022-12-03T22:40:38.762Z,92.27
2022-12-03T22:41:40.790Z,92.23
2022-12-03T22:42:47.813Z,92.49
2022-12-03T22:43:50.356Z,92.54
2022-12-03T22:44:52.273Z,92.57
2022-12-03T22:45:55.343Z,92.53
2022-12-03T22:46:57.645Z,92.67
2022-12-03T22:47:59.583Z,92.42
2022-12-03T22:49:06.843Z,92.07
2022-12-03T22:50:07.425Z,92.23
2022-12-03T22:52:22.501Z,92.28
2022-12-03T22:53:24.412Z,92.41
2022-12-03T22:54:26.270Z,92.42
2022-12-03T22:55:29.160Z,92.25
2022-12-03T22:56:31.588Z,92.38
2022-12-03T22:57:33.461Z,92.63
2022-12-03T22:58:37.628Z,92.63
2022-12-03T22:59:39.560Z,92.43
2022-12-03T23:00:41.724Z,92.28
2022-12-03T23:01:43.800Z,92.28
2022-12-03T23:02:45.758Z,92.18
2022-12-03T23:03:48.255Z,92.12
2022-12-03T23:04:50.336Z,92.19
2022-12-03T23:05:52.284Z,92.30
2022-12-03T23:06:54.365Z,92.52
2022-12-03T23:07:56.307Z,92.70
2022-12-03T23:08:59.464Z,92.64
2022-12-03T23:10:01.426Z,92.72
2022-12-03T23:11:03.705Z,92.85
2022-12-03T23:12:05.879Z,92.77
2022-12-03T23:13:08.983Z,92.77
2022-12-03T23:14:12.038Z,92.99
2022-12-03T23:15:13.932Z,93.03
2022-12-03T23:17:29.126Z,93.36
2022-12-03T23:18:32.575Z,93.36
2022-12-03T23:19:35.097Z,93.40
2022-12-03T23:20:46.007Z,93.41
2022-12-03T23:21:47.936Z,93.47
2022-12-03T23:22:51.023Z,93.59
2022-12-03T23:23:53.027Z,93.58
2022-12-03T23:24:54.923Z,93.53
2022-12-03T23:26:03.265Z,93.45
2022-12-03T23:27:05.218Z,93.52
2022-12-03T23:28:07.571Z,93.63
2022-12-03T23:29:10.328Z,93.70
2022-12-03T23:30:13.733Z,93.76
2022-12-03T23:31:25.197Z,93.67